createdAt,value
2018-05-14T00:00:37.308Z,0.00
2018-05-14T00:01:37.347Z,0.00
2018-05-14T00:02:37.381Z,0.00
2018-05-14T00:03:37.475Z,0.00
2018-05-14T00:04:37.453Z,0.00
2018-05-14T00:05:37.493Z,0.00
2018-05-14T00:06:37.526Z,0.00
2018-05-14T00:07:37.560Z,0.00
2018-05-14T00:08:37.599Z,0.00
2018-05-14T00:09:37.634Z,0.00
2018-05-14T00:10:37.670Z,0.00
2018-05-14T00:11:37.705Z,0.00
2018-05-14T00:12:37.743Z,0.00
2018-05-14T00:13:37.779Z,0.00
2018-05-14T00:14:37.816Z,0.00
2018-05-14T00:15:37.851Z,0.00
2018-05-14T00:16:37.886Z,0.00
2018-05-14T00:17:37.926Z,0.00
2018-05-14T00:18:37.962Z,0.00
2018-05-14T00:19:37.994Z,0.00
2018-05-14T00:20:38.038Z,0.00
2018-05-14T00:21:38.068Z,0.00
2018-05-14T00:22:38.103Z,0.00
2018-05-14T00:23:38.140Z,0.00
2018-05-14T00:24:38.177Z,0.00
2018-05-14T00:25:38.211Z,0.00
2018-05-14T00:26:38.249Z,0.00
2018-05-14T00:27:38.284Z,0.00
2018-05-14T00:28:38.323Z,0.00
2018-05-14T00:29:38.366Z,0.00
2018-05-14T00:30:38.393Z,0.00
2018-05-14T00:31:38.429Z,0.00
2018-05-14T00:32:38.467Z,0.00
2018-05-14T00:33:38.502Z,0.00
2018-05-14T00:34:38.540Z,0.00
2018-05-14T00:35:38.573Z,0.00
2018-05-14T00:36:38.608Z,0.00
2018-05-14T00:37:38.647Z,0.00
2018-05-14T00:38:38.685Z,0.00
2018-05-14T00:39:38.724Z,0.00
2018-05-14T00:40:38.754Z,0.00
2018-05-14T00:41:38.792Z,0.00
2018-05-14T00:42:38.827Z,0.00
2018-05-14T00:43:38.865Z,0.00
2018-05-14T00:44:38.900Z,0.00
2018-05-14T00:45:38.937Z,0.00
2018-05-14T00:46:38.979Z,0.00
2018-05-14T00:47:39.006Z,0.00
2018-05-14T00:48:39.045Z,0.00
2018-05-14T00:49:39.081Z,0.00
2018-05-14T00:50:39.113Z,0.00
2018-05-14T00:51:39.150Z,0.00
2018-05-14T00:52:39.185Z,0.00
2018-05-14T00:53:39.222Z,0.00
2018-05-14T00:54:39.268Z,0.00
2018-05-14T00:55:39.291Z,0.00
2018-05-14T00:56:39.327Z,0.00
2018-05-14T00:57:39.367Z,0.00
2018-05-14T00:58:39.400Z,0.00
2018-05-14T00:59:39.441Z,0.00
2018-05-14T01:00:39.471Z,0.00
2018-05-14T01:01:39.508Z,0.00
2018-05-14T01:02:39.594Z,0.00
2018-05-14T01:03:39.661Z,0.00
2018-05-14T01:04:39.615Z,0.00
2018-05-14T01:05:39.654Z,0.00
2018-05-14T01:06:39.738Z,0.00
2018-05-14T01:07:39.722Z,0.00
2018-05-14T01:08:39.760Z,0.00
2018-05-14T01:09:39.794Z,0.00
2018-05-14T01:10:39.831Z,0.00
2018-05-14T01:11:39.866Z,0.00
2018-05-14T01:12:39.902Z,0.00
2018-05-14T01:13:39.938Z,0.00
2018-05-14T01:14:40.034Z,0.00
2018-05-14T01:15:40.009Z,0.00
2018-05-14T01:16:40.046Z,0.00
2018-05-14T01:17:40.081Z,0.00
2018-05-14T01:18:40.118Z,0.00
2018-05-14T01:19:40.152Z,0.00
2018-05-14T01:20:40.190Z,0.00
2018-05-14T01:21:40.224Z,0.00
2018-05-14T01:22:40.258Z,0.00
2018-05-14T01:23:40.295Z,0.00
2018-05-14T01:24:40.330Z,0.00
2018-05-14T01:25:40.384Z,0.00
2018-05-14T01:26:40.407Z,0.00
2018-05-14T01:27:40.446Z,0.00
2018-05-14T01:28:40.473Z,0.00
2018-05-14T01:29:40.508Z,0.00
2018-05-14T01:30:40.547Z,0.00
2018-05-14T01:31:40.581Z,0.00
2018-05-14T01:32:40.615Z,0.00
2018-05-14T01:33:40.660Z,0.00
2018-05-14T01:34:40.691Z,0.00
2018-05-14T01:35:40.722Z,0.00
2018-05-14T01:36:40.757Z,0.00
2018-05-14T01:37:40.794Z,0.00
2018-05-14T01:38:40.832Z,0.00
2018-05-14T01:39:40.866Z,0.00
2018-05-14T01:40:40.902Z,0.00
2018-05-14T01:41:40.937Z,0.00
2018-05-14T01:42:40.976Z,0.00
2018-05-14T01:43:41.005Z,0.00
2018-05-14T01:44:41.048Z,0.00
2018-05-14T01:45:41.076Z,0.00
2018-05-14T01:46:41.116Z,0.00
2018-05-14T01:47:41.147Z,0.00
2018-05-14T01:48:41.185Z,0.00
2018-05-14T01:49:41.225Z,0.00
2018-05-14T01:50:41.262Z,0.00
2018-05-14T01:51:41.291Z,0.00
2018-05-14T01:52:41.327Z,0.00
2018-05-14T01:53:41.361Z,0.00
2018-05-14T01:54:41.397Z,0.00
2018-05-14T01:55:41.432Z,0.00
2018-05-14T01:56:41.467Z,0.00
2018-05-14T01:57:41.500Z,0.00
2018-05-14T01:58:41.537Z,0.00
2018-05-14T01:59:41.572Z,0.00
2018-05-14T02:00:41.607Z,0.00
2018-05-14T02:01:41.646Z,0.00
2018-05-14T02:02:41.679Z,0.00
2018-05-14T02:03:41.714Z,0.00
2018-05-14T02:04:41.749Z,0.00
2018-05-14T02:05:41.784Z,0.00
2018-05-14T02:06:41.823Z,0.00
2018-05-14T02:07:41.855Z,0.00
2018-05-14T02:08:41.890Z,0.00
2018-05-14T02:09:41.924Z,0.00
2018-05-14T02:10:41.961Z,0.00
2018-05-14T02:11:41.999Z,0.00
2018-05-14T02:12:42.030Z,0.00
2018-05-14T02:13:42.068Z,0.00
2018-05-14T02:14:42.103Z,0.00
2018-05-14T02:15:42.147Z,0.00
2018-05-14T02:16:42.173Z,0.00
2018-05-14T02:17:42.210Z,0.00
2018-05-14T02:18:42.244Z,0.00
2018-05-14T02:19:42.282Z,0.00
2018-05-14T02:20:42.313Z,0.00
2018-05-14T02:21:42.348Z,0.00
2018-05-14T02:22:42.384Z,0.00
2018-05-14T02:23:42.424Z,0.00
2018-05-14T02:24:42.454Z,0.00
2018-05-14T02:25:42.489Z,0.00
2018-05-14T02:26:42.524Z,0.00
2018-05-14T02:27:42.560Z,0.00
2018-05-14T02:28:42.596Z,0.00
2018-05-14T02:29:42.633Z,0.00
2018-05-14T02:30:42.667Z,0.00
2018-05-14T02:31:42.702Z,0.00
2018-05-14T02:32:42.734Z,0.00
2018-05-14T02:33:42.775Z,0.00
2018-05-14T02:34:42.809Z,0.00
2018-05-14T02:35:42.848Z,0.00
2018-05-14T02:36:42.875Z,0.00
2018-05-14T02:37:42.910Z,0.00
2018-05-14T02:38:42.952Z,0.00
2018-05-14T02:39:42.980Z,0.00
2018-05-14T02:40:43.017Z,0.00
2018-05-14T02:41:43.060Z,0.00
2018-05-14T02:42:43.086Z,0.00
2018-05-14T02:43:43.120Z,0.00
2018-05-14T02:44:43.162Z,0.00
2018-05-14T02:45:43.189Z,0.00
2018-05-14T02:46:43.241Z,0.00
2018-05-14T02:47:43.258Z,0.00
2018-05-14T02:48:43.294Z,0.00
2018-05-14T02:49:43.335Z,0.00
2018-05-14T02:50:43.370Z,4.00
2018-05-14T02:51:43.398Z,4.00
2018-05-14T02:52:43.432Z,0.00
2018-05-14T02:53:43.468Z,0.00
2018-05-14T02:54:43.506Z,4.00
2018-05-14T02:55:43.538Z,0.00
2018-05-14T02:56:43.575Z,4.00
2018-05-14T02:57:43.609Z,8.00
2018-05-14T02:58:43.647Z,4.00
2018-05-14T02:59:43.687Z,4.00
2018-05-14T03:00:43.711Z,8.00
2018-05-14T03:01:43.746Z,8.00
2018-05-14T03:02:43.783Z,12.00
2018-05-14T03:03:43.820Z,8.00
2018-05-14T03:04:43.852Z,12.00
2018-05-14T03:05:43.887Z,16.00
2018-05-14T03:06:43.922Z,16.00
2018-05-14T03:07:43.962Z,20.00
2018-05-14T03:08:43.989Z,24.00
2018-05-14T03:09:44.026Z,24.00
2018-05-14T03:10:44.059Z,28.00
2018-05-14T03:11:44.092Z,32.00
2018-05-14T03:12:44.130Z,36.00
2018-05-14T03:13:44.165Z,40.00
2018-05-14T03:14:44.199Z,48.00
2018-05-14T03:15:44.233Z,56.00
2018-05-14T03:16:44.317Z,64.00
2018-05-14T03:17:44.303Z,68.00
2018-05-14T03:18:44.338Z,80.00
2018-05-14T03:19:44.370Z,88.00
2018-05-14T03:20:44.407Z,100.00
2018-05-14T03:21:44.442Z,112.00
2018-05-14T03:22:44.478Z,124.00
2018-05-14T03:23:44.511Z,140.00
2018-05-14T03:24:44.546Z,156.00
2018-05-14T03:25:44.591Z,172.00
2018-05-14T03:26:44.615Z,188.00
2018-05-14T03:27:44.650Z,208.00
2018-05-14T03:28:44.685Z,228.00
2018-05-14T03:29:44.724Z,252.00
2018-05-14T03:30:44.755Z,272.00
2018-05-14T03:31:44.788Z,296.00
2018-05-14T03:32:44.827Z,320.00
2018-05-14T03:33:44.857Z,344.00
2018-05-14T03:34:44.895Z,376.00
2018-05-14T03:35:44.930Z,408.00
2018-05-14T03:36:44.961Z,448.00
2018-05-14T03:37:44.996Z,488.00
2018-05-14T03:38:45.083Z,528.00
2018-05-14T03:39:45.065Z,572.00
2018-05-14T03:40:45.100Z,616.00
2018-05-14T03:41:45.209Z,660.00
2018-05-14T03:42:45.170Z,716.00
2018-05-14T03:43:45.208Z,764.00
2018-05-14T03:44:45.237Z,816.00
2018-05-14T03:45:45.276Z,872.00
2018-05-14T03:46:45.315Z,928.00
2018-05-14T03:47:45.341Z,992.00
2018-05-14T03:48:45.382Z,1056.00
2018-05-14T03:49:45.410Z,1120.00
2018-05-14T03:50:45.447Z,1192.00
2018-05-14T03:51:45.479Z,1252.00
2018-05-14T03:52:45.514Z,1316.00
2018-05-14T03:53:45.549Z,1384.00
2018-05-14T03:54:45.584Z,1464.00
2018-05-14T03:55:45.619Z,1552.00
2018-05-14T03:56:45.653Z,1636.00
2018-05-14T03:57:45.690Z,1716.00
2018-05-14T03:58:45.723Z,1788.00
2018-05-14T03:59:45.759Z,1864.00
2018-05-14T04:00:45.793Z,1944.00
2018-05-14T04:01:45.828Z,2024.00
2018-05-14T04:02:45.862Z,2104.00
2018-05-14T04:03:45.894Z,2180.00
2018-05-14T04:04:45.929Z,2268.00
2018-05-14T04:05:45.965Z,2368.00
2018-05-14T04:06:46.001Z,2460.00
2018-05-14T04:07:46.037Z,2552.00
2018-05-14T04:08:46.080Z,2632.00
2018-05-14T04:09:46.105Z,2704.00
2018-05-14T04:10:46.140Z,2772.00
2018-05-14T04:11:46.173Z,2844.00
2018-05-14T04:12:46.217Z,2944.00
2018-05-14T04:13:46.243Z,3052.00
2018-05-14T04:14:46.277Z,3136.00
2018-05-14T04:15:46.318Z,3284.00
2018-05-14T04:16:46.346Z,3444.00
2018-05-14T04:17:46.380Z,3588.00
2018-05-14T04:18:46.416Z,3704.00
2018-05-14T04:19:46.451Z,3820.00
2018-05-14T04:20:46.485Z,3928.00
2018-05-14T04:21:46.524Z,4044.00
2018-05-14T04:22:46.555Z,4148.00
2018-05-14T04:23:46.589Z,4244.00
2018-05-14T04:24:46.625Z,4344.00
2018-05-14T04:25:46.662Z,4420.00
2018-05-14T04:26:46.697Z,4552.00
2018-05-14T04:27:46.733Z,4628.00
2018-05-14T04:28:46.763Z,4692.00
2018-05-14T04:29:46.799Z,4752.00
2018-05-14T04:30:46.832Z,4828.00
2018-05-14T04:31:46.872Z,4920.00
2018-05-14T04:32:46.902Z,5012.00
2018-05-14T04:33:46.938Z,5084.00
2018-05-14T04:34:46.972Z,5128.00
2018-05-14T04:35:47.006Z,5196.00
2018-05-14T04:36:47.042Z,5276.00
2018-05-14T04:37:47.077Z,5328.00
2018-05-14T04:38:47.113Z,5380.00
2018-05-14T04:39:47.148Z,5424.00
2018-05-14T04:40:47.183Z,5472.00
2018-05-14T04:41:47.218Z,5540.00
2018-05-14T04:42:47.258Z,5636.00
2018-05-14T04:43:47.291Z,5728.00
2018-05-14T04:44:47.323Z,5776.00
2018-05-14T04:45:47.368Z,5812.00
2018-05-14T04:46:47.396Z,5812.00
2018-05-14T04:47:47.432Z,5824.00
2018-05-14T04:48:47.465Z,5860.00
2018-05-14T04:49:47.498Z,5900.00
2018-05-14T04:50:47.533Z,5956.00
2018-05-14T04:51:47.570Z,6016.00
2018-05-14T04:52:47.605Z,6060.00
2018-05-14T04:53:47.642Z,6104.00
2018-05-14T04:54:47.675Z,6152.00
2018-05-14T04:55:47.711Z,6208.00
2018-05-14T04:56:47.747Z,6284.00
2018-05-14T04:57:47.781Z,6360.00
2018-05-14T04:58:47.818Z,6440.00
2018-05-14T04:59:47.852Z,6520.00
2018-05-14T05:00:47.892Z,6604.00
2018-05-14T05:01:47.923Z,6688.00
2018-05-14T05:02:48.009Z,6772.00
2018-05-14T05:03:47.993Z,6860.00
2018-05-14T05:04:48.034Z,6952.00
2018-05-14T05:05:48.073Z,7036.00
2018-05-14T05:06:48.102Z,7124.00
2018-05-14T05:07:48.136Z,7216.00
2018-05-14T05:08:48.171Z,7292.00
2018-05-14T05:09:48.209Z,7372.00
2018-05-14T05:10:48.245Z,7444.00
2018-05-14T05:11:48.279Z,7512.00
2018-05-14T05:12:48.323Z,7576.00
2018-05-14T05:13:48.361Z,7644.00
2018-05-14T05:14:48.387Z,7696.00
2018-05-14T05:15:48.429Z,7728.00
2018-05-14T05:16:48.459Z,7768.00
2018-05-14T05:17:48.494Z,7808.00
2018-05-14T05:18:48.529Z,7840.00
2018-05-14T05:19:48.574Z,7856.00
2018-05-14T05:20:48.606Z,7884.00
2018-05-14T05:21:48.637Z,7904.00
2018-05-14T05:22:48.693Z,7932.00
2018-05-14T05:23:48.709Z,7956.00
2018-05-14T05:24:48.744Z,7964.00
2018-05-14T05:25:48.781Z,7964.00
2018-05-14T05:26:48.815Z,7924.00
2018-05-14T05:27:48.850Z,7884.00
2018-05-14T05:28:48.888Z,7856.00
2018-05-14T05:29:48.924Z,7836.00
2018-05-14T05:30:48.960Z,7808.00
2018-05-14T05:31:48.996Z,7764.00
2018-05-14T05:32:49.032Z,7720.00
2018-05-14T05:33:49.171Z,7668.00
2018-05-14T05:34:49.105Z,7616.00
2018-05-14T05:35:49.144Z,7584.00
2018-05-14T05:36:49.177Z,7552.00
2018-05-14T05:37:49.307Z,7512.00
2018-05-14T05:38:49.258Z,7476.00
2018-05-14T05:39:49.286Z,7460.00
2018-05-14T05:40:49.321Z,7460.00
2018-05-14T05:41:49.358Z,7480.00
2018-05-14T05:42:49.396Z,7488.00
2018-05-14T05:43:49.433Z,7472.00
2018-05-14T05:44:49.469Z,7408.00
2018-05-14T05:45:49.505Z,7348.00
2018-05-14T05:46:49.541Z,7292.00
2018-05-14T05:47:49.579Z,7232.00
2018-05-14T05:48:49.615Z,7172.00
2018-05-14T05:49:49.651Z,7116.00
2018-05-14T05:50:49.689Z,7056.00
2018-05-14T05:51:49.725Z,7024.00
2018-05-14T05:52:49.766Z,7024.00
2018-05-14T05:53:49.803Z,7048.00
2018-05-14T05:54:49.833Z,7032.00
2018-05-14T05:55:49.869Z,7028.00
2018-05-14T05:56:49.909Z,7076.00
2018-05-14T05:57:49.949Z,7228.00
2018-05-14T05:58:49.981Z,7336.00
2018-05-14T05:59:50.017Z,7428.00
2018-05-14T06:00:50.056Z,7608.00
2018-05-14T06:01:50.091Z,7816.00
2018-05-14T06:02:50.180Z,7920.00
2018-05-14T06:03:50.164Z,8016.00
2018-05-14T06:04:50.201Z,8044.00
2018-05-14T06:05:50.241Z,7948.00
2018-05-14T06:06:50.275Z,7848.00
2018-05-14T06:07:50.313Z,7752.00
2018-05-14T06:08:50.351Z,7656.00
2018-05-14T06:09:50.386Z,7512.00
2018-05-14T06:10:50.426Z,7348.00
2018-05-14T06:11:50.460Z,7304.00
2018-05-14T06:12:50.497Z,7432.00
2018-05-14T06:13:50.534Z,7544.00
2018-05-14T06:14:50.570Z,7640.00
2018-05-14T06:15:50.607Z,7708.00
2018-05-14T06:16:50.646Z,7752.00
2018-05-14T06:17:50.684Z,7764.00
2018-05-14T06:18:50.721Z,7752.00
2018-05-14T06:19:50.756Z,7744.00
2018-05-14T06:20:50.808Z,7708.00
2018-05-14T06:21:50.834Z,7684.00
2018-05-14T06:22:50.874Z,7660.00
2018-05-14T06:23:50.907Z,7652.00
2018-05-14T06:24:50.947Z,7636.00
2018-05-14T06:25:50.981Z,7624.00
2018-05-14T06:26:51.019Z,7592.00
2018-05-14T06:27:51.058Z,7556.00
2018-05-14T06:28:51.094Z,7516.00
2018-05-14T06:29:51.140Z,7468.00
2018-05-14T06:30:51.171Z,7416.00
2018-05-14T06:31:51.207Z,7380.00
2018-05-14T06:32:51.244Z,7332.00
2018-05-14T06:33:51.282Z,7268.00
2018-05-14T06:34:51.320Z,7188.00
2018-05-14T06:35:51.371Z,7080.00
2018-05-14T06:36:51.396Z,6976.00
2018-05-14T06:37:51.432Z,6912.00
2018-05-14T06:38:51.480Z,6840.00
2018-05-14T06:39:51.508Z,6836.00
2018-05-14T06:40:51.547Z,6832.00
2018-05-14T06:41:51.588Z,6916.00
2018-05-14T06:42:51.623Z,7028.00
2018-05-14T06:43:51.661Z,7104.00
2018-05-14T06:44:51.698Z,7116.00
2018-05-14T06:45:51.735Z,7008.00
2018-05-14T06:46:51.774Z,7024.00
2018-05-14T06:47:51.812Z,7024.00
2018-05-14T06:48:51.850Z,7152.00
2018-05-14T06:49:51.919Z,7272.00
2018-05-14T06:50:51.928Z,7564.00
2018-05-14T06:51:51.970Z,7820.00
2018-05-14T06:52:52.003Z,8020.00
2018-05-14T06:53:52.041Z,8180.00
2018-05-14T06:54:52.081Z,8280.00
2018-05-14T06:55:52.118Z,8344.00
2018-05-14T06:56:52.375Z,8348.00
2018-05-14T06:57:52.197Z,8280.00
2018-05-14T06:58:52.233Z,8160.00
2018-05-14T06:59:52.271Z,8028.00
2018-05-14T07:00:52.309Z,7864.00
2018-05-14T07:01:52.350Z,7684.00
2018-05-14T07:02:52.394Z,7500.00
2018-05-14T07:03:52.424Z,7336.00
2018-05-14T07:04:52.464Z,7196.00
2018-05-14T07:05:52.502Z,7076.00
2018-05-14T07:06:52.545Z,6984.00
2018-05-14T07:07:52.579Z,6896.00
2018-05-14T07:08:52.617Z,6824.00
2018-05-14T07:09:52.680Z,6752.00
2018-05-14T07:10:52.695Z,6712.00
2018-05-14T07:11:52.733Z,6708.00
2018-05-14T07:12:52.772Z,6728.00
2018-05-14T07:13:52.810Z,6752.00
2018-05-14T07:14:52.849Z,6772.00
2018-05-14T07:15:52.903Z,6792.00
2018-05-14T07:16:52.926Z,6816.00
2018-05-14T07:17:52.971Z,6832.00
2018-05-14T07:18:53.004Z,6852.00
2018-05-14T07:19:53.043Z,6880.00
2018-05-14T07:20:53.084Z,6904.00
2018-05-14T07:21:53.122Z,6940.00
2018-05-14T07:22:53.164Z,6944.00
2018-05-14T07:23:53.201Z,6928.00
2018-05-14T07:24:53.320Z,6932.00
2018-05-14T07:25:53.279Z,6916.00
2018-05-14T07:26:53.318Z,6908.00
2018-05-14T07:27:53.356Z,6876.00
2018-05-14T07:28:53.394Z,6844.00
2018-05-14T07:29:53.433Z,6812.00
2018-05-14T07:30:53.482Z,6800.00
2018-05-14T07:31:53.511Z,6756.00
2018-05-14T07:32:53.550Z,6712.00
2018-05-14T07:33:53.589Z,6652.00
2018-05-14T07:34:53.629Z,6612.00
2018-05-14T07:35:53.666Z,6572.00
2018-05-14T07:36:53.705Z,6528.00
2018-05-14T07:37:53.745Z,6508.00
2018-05-14T07:38:53.785Z,6464.00
2018-05-14T07:39:53.826Z,6460.00
2018-05-14T07:40:53.865Z,6384.00
2018-05-14T07:41:53.908Z,6272.00
2018-05-14T07:42:53.942Z,6124.00
2018-05-14T07:43:53.981Z,5780.00
2018-05-14T07:44:54.021Z,5612.00
2018-05-14T07:45:54.061Z,5528.00
2018-05-14T07:46:54.103Z,5476.00
2018-05-14T07:47:54.137Z,5556.00
2018-05-14T07:48:54.179Z,5508.00
2018-05-14T07:49:54.218Z,5396.00
2018-05-14T07:50:54.258Z,5364.00
2018-05-14T07:51:54.297Z,5484.00
2018-05-14T07:52:54.336Z,5644.00
2018-05-14T07:53:54.375Z,5720.00
2018-05-14T07:54:54.416Z,5780.00
2018-05-14T07:55:54.462Z,5784.00
2018-05-14T07:56:54.499Z,5764.00
2018-05-14T07:57:54.538Z,5744.00
2018-05-14T07:58:54.572Z,5748.00
2018-05-14T07:59:54.612Z,5708.00
2018-05-14T08:00:54.651Z,5676.00
2018-05-14T08:01:54.690Z,5664.00
2018-05-14T08:02:54.730Z,5660.00
2018-05-14T08:03:54.768Z,5656.00
2018-05-14T08:04:54.809Z,5628.00
2018-05-14T08:05:54.849Z,5600.00
2018-05-14T08:06:54.887Z,5584.00
2018-05-14T08:07:54.926Z,5600.00
2018-05-14T08:08:54.967Z,5576.00
2018-05-14T08:09:55.015Z,5576.00
2018-05-14T08:10:55.059Z,5548.00
2018-05-14T08:11:55.093Z,5552.00
2018-05-14T08:12:55.124Z,5560.00
2018-05-14T08:13:55.165Z,5572.00
2018-05-14T08:14:55.206Z,5596.00
2018-05-14T08:15:55.247Z,5592.00
2018-05-14T08:16:55.286Z,5616.00
2018-05-14T08:17:55.325Z,5652.00
2018-05-14T08:18:55.363Z,5664.00
2018-05-14T08:19:55.404Z,5684.00
2018-05-14T08:20:55.443Z,5708.00
2018-05-14T08:21:55.485Z,5708.00
2018-05-14T08:22:55.523Z,5704.00
2018-05-14T08:23:55.568Z,5696.00
2018-05-14T08:24:55.619Z,5692.00
2018-05-14T08:25:55.645Z,5676.00
2018-05-14T08:26:55.688Z,5660.00
2018-05-14T08:27:55.725Z,5660.00
2018-05-14T08:28:55.763Z,5616.00
2018-05-14T08:29:55.804Z,5596.00
2018-05-14T08:30:55.847Z,5548.00
2018-05-14T08:31:55.889Z,5512.00
2018-05-14T08:32:55.921Z,5496.00
2018-05-14T08:33:55.963Z,5492.00
2018-05-14T08:34:56.003Z,5492.00
2018-05-14T08:35:56.043Z,5488.00
2018-05-14T08:36:56.082Z,5468.00
2018-05-14T08:37:56.124Z,5440.00
2018-05-14T08:38:56.162Z,5408.00
2018-05-14T08:39:56.202Z,5364.00
2018-05-14T08:40:56.242Z,5320.00
2018-05-14T08:41:56.284Z,5300.00
2018-05-14T08:42:56.323Z,5272.00
2018-05-14T08:43:56.364Z,5240.00
2018-05-14T08:44:56.408Z,5220.00
2018-05-14T08:45:56.466Z,5192.00
2018-05-14T08:46:56.491Z,5168.00
2018-05-14T08:47:56.595Z,5128.00
2018-05-14T08:48:56.611Z,5100.00
2018-05-14T08:49:56.605Z,5080.00
2018-05-14T08:50:56.645Z,5072.00
2018-05-14T08:51:56.687Z,5076.00
2018-05-14T08:52:56.743Z,5100.00
2018-05-14T08:53:56.766Z,5088.00
2018-05-14T08:54:56.808Z,5056.00
2018-05-14T08:55:56.863Z,5028.00
2018-05-14T08:56:56.897Z,5008.00
2018-05-14T08:57:57.128Z,4976.00
2018-05-14T08:58:56.978Z,4988.00
2018-05-14T08:59:57.015Z,4996.00
2018-05-14T09:00:57.050Z,4996.00
2018-05-14T09:01:57.180Z,5016.00
2018-05-14T09:02:57.129Z,4988.00
2018-05-14T09:03:57.172Z,4960.00
2018-05-14T09:04:57.211Z,4960.00
2018-05-14T09:05:57.255Z,4940.00
2018-05-14T09:06:57.303Z,4940.00
2018-05-14T09:07:57.332Z,4972.00
2018-05-14T09:08:57.372Z,4968.00
2018-05-14T09:09:57.416Z,4952.00
2018-05-14T09:10:57.454Z,4944.00
2018-05-14T09:11:57.495Z,4968.00
2018-05-14T09:12:57.535Z,4964.00
2018-05-14T09:13:57.575Z,4976.00
2018-05-14T09:14:57.617Z,4956.00
2018-05-14T09:15:57.657Z,4928.00
2018-05-14T09:16:57.697Z,4932.00
2018-05-14T09:17:57.738Z,4944.00
2018-05-14T09:18:57.778Z,4940.00
2018-05-14T09:19:57.818Z,4944.00
2018-05-14T09:20:57.868Z,4944.00
2018-05-14T09:21:57.904Z,4972.00
2018-05-14T09:22:57.943Z,4988.00
2018-05-14T09:23:57.981Z,5000.00
2018-05-14T09:24:58.025Z,4976.00
2018-05-14T09:25:58.061Z,4976.00
2018-05-14T09:26:58.103Z,4964.00
2018-05-14T09:27:58.143Z,4928.00
2018-05-14T09:28:58.184Z,4952.00
2018-05-14T09:29:58.224Z,4916.00
2018-05-14T09:30:58.264Z,4908.00
2018-05-14T09:31:58.313Z,4908.00
2018-05-14T09:32:58.346Z,4932.00
2018-05-14T09:33:58.387Z,4884.00
2018-05-14T09:34:58.427Z,4888.00
2018-05-14T09:35:58.470Z,4920.00
2018-05-14T09:36:58.509Z,4944.00
2018-05-14T09:37:58.550Z,4952.00
2018-05-14T09:38:58.591Z,4960.00
2018-05-14T09:39:58.631Z,4972.00
2018-05-14T09:40:58.672Z,4988.00
2018-05-14T09:41:58.720Z,4976.00
2018-05-14T09:42:58.763Z,4960.00
2018-05-14T09:43:58.795Z,4996.00
2018-05-14T09:44:58.836Z,5052.00
2018-05-14T09:45:58.878Z,5052.00
2018-05-14T09:46:58.919Z,5080.00
2018-05-14T09:47:58.961Z,5048.00
2018-05-14T09:48:59.000Z,5084.00
2018-05-14T09:49:59.158Z,5072.00
2018-05-14T09:50:59.206Z,5072.00
2018-05-14T09:51:59.162Z,5048.00
2018-05-14T09:52:59.163Z,5032.00
2018-05-14T09:53:59.204Z,5040.00
2018-05-14T09:54:59.246Z,5004.00
2018-05-14T09:55:59.295Z,5000.00
2018-05-14T09:56:59.327Z,5004.00
2018-05-14T09:57:59.371Z,5000.00
2018-05-14T09:58:59.411Z,5008.00
2018-05-14T09:59:59.451Z,4996.00
2018-05-14T10:00:59.493Z,5012.00
2018-05-14T10:01:59.545Z,5020.00
2018-05-14T10:02:59.576Z,5004.00
2018-05-14T10:03:59.615Z,4980.00
2018-05-14T10:04:59.665Z,4980.00
2018-05-14T10:05:59.700Z,4980.00
2018-05-14T10:06:59.740Z,4964.00
2018-05-14T10:07:59.782Z,4980.00
2018-05-14T10:08:59.823Z,4984.00
2018-05-14T10:09:59.866Z,5008.00
2018-05-14T10:10:59.909Z,5040.00
2018-05-14T10:11:59.952Z,5052.00
2018-05-14T10:13:00.070Z,5100.00
2018-05-14T10:14:00.032Z,5120.00
2018-05-14T10:15:00.080Z,5124.00
2018-05-14T10:16:00.119Z,5156.00
2018-05-14T10:17:00.162Z,5128.00
2018-05-14T10:18:00.196Z,5124.00
2018-05-14T10:19:00.238Z,5104.00
2018-05-14T10:20:00.280Z,5132.00
2018-05-14T10:21:00.323Z,5140.00
2018-05-14T10:22:00.367Z,5148.00
2018-05-14T10:23:00.406Z,5144.00
2018-05-14T10:24:00.449Z,5160.00
2018-05-14T10:25:00.487Z,5132.00
2018-05-14T10:26:00.531Z,5124.00
2018-05-14T10:27:00.576Z,5120.00
2018-05-14T10:28:00.613Z,5104.00
2018-05-14T10:29:00.655Z,5128.00
2018-05-14T10:30:00.695Z,5096.00
2018-05-14T10:31:00.741Z,5116.00
2018-05-14T10:32:00.814Z,5168.00
2018-05-14T10:33:00.820Z,5180.00
2018-05-14T10:34:00.863Z,5180.00
2018-05-14T10:35:00.904Z,5244.00
2018-05-14T10:36:00.946Z,5164.00
2018-05-14T10:37:00.988Z,5144.00
2018-05-14T10:38:01.033Z,5152.00
2018-05-14T10:39:01.076Z,5204.00
2018-05-14T10:40:01.121Z,5148.00
2018-05-14T10:41:01.152Z,5100.00
2018-05-14T10:42:01.197Z,5108.00
2018-05-14T10:43:01.239Z,5132.00
2018-05-14T10:44:01.280Z,5092.00
2018-05-14T10:45:01.321Z,5064.00
2018-05-14T10:46:01.374Z,5084.00
2018-05-14T10:47:01.403Z,5140.00
2018-05-14T10:48:01.450Z,5128.00
2018-05-14T10:49:01.489Z,5168.00
2018-05-14T10:50:01.531Z,5144.00
2018-05-14T10:51:01.573Z,5124.00
2018-05-14T10:52:01.613Z,5084.00
2018-05-14T10:53:01.657Z,5120.00
2018-05-14T10:54:01.695Z,5092.00
2018-05-14T10:55:01.739Z,5144.00
2018-05-14T10:56:01.879Z,5252.00
2018-05-14T10:57:01.830Z,5232.00
2018-05-14T10:58:01.864Z,5244.00
2018-05-14T10:59:01.905Z,5244.00
2018-05-14T11:00:01.956Z,5276.00
2018-05-14T11:01:01.988Z,5272.00
2018-05-14T11:02:02.030Z,5272.00
2018-05-14T11:03:02.071Z,5316.00
2018-05-14T11:04:02.135Z,5464.00
2018-05-14T11:05:02.156Z,5752.00
2018-05-14T11:06:02.198Z,5848.00
2018-05-14T11:07:02.238Z,5636.00
2018-05-14T11:08:02.282Z,5420.00
2018-05-14T11:09:02.324Z,5380.00
2018-05-14T11:10:02.365Z,5392.00
2018-05-14T11:11:02.406Z,5468.00
2018-05-14T11:12:02.450Z,5564.00
2018-05-14T11:13:02.489Z,5816.00
2018-05-14T11:14:02.533Z,6068.00
2018-05-14T11:15:02.581Z,5924.00
2018-05-14T11:16:02.626Z,5628.00
2018-05-14T11:17:02.662Z,5524.00
2018-05-14T11:18:02.704Z,5532.00
2018-05-14T11:19:02.746Z,5532.00
2018-05-14T11:20:02.785Z,5540.00
2018-05-14T11:21:02.829Z,5564.00
2018-05-14T11:22:02.872Z,5588.00
2018-05-14T11:23:02.915Z,5656.00
2018-05-14T11:24:02.952Z,5912.00
2018-05-14T11:25:03.002Z,6196.00
2018-05-14T11:26:03.041Z,6412.00
2018-05-14T11:27:03.081Z,6104.00
2018-05-14T11:28:03.121Z,5708.00
2018-05-14T11:29:03.171Z,5808.00
2018-05-14T11:30:03.206Z,5620.00
2018-05-14T11:31:03.247Z,5540.00
2018-05-14T11:32:03.291Z,5460.00
2018-05-14T11:33:03.337Z,5428.00
2018-05-14T11:34:03.376Z,5368.00
2018-05-14T11:35:03.426Z,5352.00
2018-05-14T11:36:03.511Z,5360.00
2018-05-14T11:37:03.503Z,5384.00
2018-05-14T11:38:03.546Z,5372.00
2018-05-14T11:39:03.591Z,4724.00
2018-05-14T11:40:03.630Z,5296.00
2018-05-14T11:41:03.673Z,5308.00
2018-05-14T11:42:03.715Z,5336.00
2018-05-14T11:43:03.759Z,5344.00
2018-05-14T11:44:03.800Z,5336.00
2018-05-14T11:45:03.850Z,5380.00
2018-05-14T11:46:03.894Z,5456.00
2018-05-14T11:47:03.937Z,5420.00
2018-05-14T11:48:03.968Z,5444.00
2018-05-14T11:49:04.016Z,5404.00
2018-05-14T11:50:04.191Z,5412.00
2018-05-14T11:51:04.097Z,5448.00
2018-05-14T11:52:04.140Z,5432.00
2018-05-14T11:53:04.182Z,5432.00
2018-05-14T11:54:04.223Z,5448.00
2018-05-14T11:55:04.266Z,5444.00
2018-05-14T11:56:04.310Z,5480.00
2018-05-14T11:57:04.352Z,5596.00
2018-05-14T11:58:04.393Z,6068.00
2018-05-14T11:59:04.436Z,7236.00
2018-05-14T12:00:04.481Z,7756.00
2018-05-14T12:01:04.526Z,7380.00
2018-05-14T12:02:04.564Z,6776.00
2018-05-14T12:03:04.708Z,6600.00
2018-05-14T12:04:04.651Z,6572.00
2018-05-14T12:05:04.691Z,6304.00
2018-05-14T12:06:04.735Z,5980.00
2018-05-14T12:07:04.776Z,5856.00
2018-05-14T12:08:04.820Z,5968.00
2018-05-14T12:09:04.863Z,6476.00
2018-05-14T12:10:04.903Z,7108.00
2018-05-14T12:11:04.947Z,7448.00
2018-05-14T12:12:05.079Z,7516.00
2018-05-14T12:13:05.031Z,7348.00
2018-05-14T12:14:05.081Z,7512.00
2018-05-14T12:15:05.118Z,7932.00
2018-05-14T12:16:05.232Z,8192.00
2018-05-14T12:17:05.217Z,8608.00
2018-05-14T12:18:05.267Z,8764.00
2018-05-14T12:19:05.291Z,8728.00
2018-05-14T12:20:05.343Z,8696.00
2018-05-14T12:21:05.376Z,8216.00
2018-05-14T12:22:05.422Z,7856.00
2018-05-14T12:23:05.471Z,7456.00
2018-05-14T12:24:05.505Z,7048.00
2018-05-14T12:25:05.547Z,6944.00